Eseniya — UBYI3 — position and weather

sailwx.info

Track history (hours):
 
Tides and Currents Weather Stations Pressure Air Temp Water Temp Dewpoint Dewpoint Depression Visibility Wind Speed Wind Dir Waves Ship Positions

Eseniya

Last reported at 2018-Feb-21 19:00 UTC. Time now 2018-Feb-21 19:26 UTC.
Position N 55°10' E 014°22'.

Length 99 m; draft 5.9 m.

Type: Cargo ship. MMSI: 273356870.

Date/timePositionNaut miles runAvg speedWind from/ knotsBaromVisibWave heightAir tempDewpointWater temp
2018-Feb-21 19:00N 55°10' E 014°22'510.4
2018-Feb-21 18:29N 55°06' E 014°16'510.3
2018-Feb-21 17:58N 55°02' E 014°10'1410.4
2018-Feb-21 16:40N 54°56' E 013°48'5610.4
2018-Feb-21 11:18N 54°32' E 012°20'3 9.9
2018-Feb-21 11:00N 54°31' E 012°16'510.1
2018-Feb-21 10:30N 54°26' E 012°12'5 9.5
2018-Feb-21 09:59N 54°25' E 012°04'1110.4
2018-Feb-21 08:58N 54°25' E 011°46'510.3
2018-Feb-21 08:30N 54°27' E 011°38'510.3
2018-Feb-21 08:00N 54°29' E 011°30'510.2
2018-Feb-21 07:30N 54°31' E 011°22'5 9.7
2018-Feb-21 07:00N 54°33' E 011°15'5 9.4
2018-Feb-21 06:30N 54°35' E 011°07'510.1
2018-Feb-21 06:00N 54°34' E 010°58'510.6
2018-Feb-21 05:30N 54°34' E 010°49'510.8
2018-Feb-21 05:00N 54°33' E 010°40'510.3
2018-Feb-21 04:30N 54°32' E 010°31'510.4
2018-Feb-21 04:00N 54°30' E 010°23'15 5.0
2018-Feb-21 01:00N 54°22' E 010°02'7 5.8
2018-Feb-20 23:53N 54°22' E 009°51'3 7.5
2018-Feb-20 23:30N 54°21' E 009°46'4 8.0
2018-Feb-20 23:00N 54°18' E 009°42'3 6.5
2018-Feb-20 22:30N 54°16' E 009°38'0 0.2
2018-Feb-20 22:00N 54°16' E 009°38'2 4.8
2018-Feb-20 21:30N 54°14' E 009°36'4 7.8
2018-Feb-20 21:00N 54°11' E 009°31'4 8.3
2018-Feb-20 20:30N 54°10' E 009°24'4 7.8
2018-Feb-20 19:59N 54°07' E 009°20'4 8.5
2018-Feb-20 19:30N 54°03' E 009°18'4 7.8
2018-Feb-20 19:01N 53°59' E 009°17'4 8.6
2018-Feb-20 18:31N 53°56' E 009°12'3 5.9
2018-Feb-20 18:00N 53°54' E 009°09'1 2.5
2018-Feb-20 17:30N 53°53' E 009°07'2 3.2
2018-Feb-20 17:00N 53°53' E 009°04'510.2
2018-Feb-20 16:30N 53°51' E 008°56'611.4
2018-Feb-20 16:00N 53°51' E 008°47'611.3
2018-Feb-20 15:30N 53°55' E 008°40'611.0
2018-Feb-20 15:00N 53°58' E 008°32'611.1
2018-Feb-20 14:30N 53°59' E 008°23'611.4
2018-Feb-20 14:00N 53°60' E 008°13'5 9.1
2018-Feb-20 13:30N 53°59' E 008°06'510.6
2018-Feb-20 13:00N 53°58' E 007°57'510.8
2018-Feb-20 12:30N 53°56' E 007°48'9710.4
2018-Feb-20 03:09N 53°30' E 005°10'2 9.9
2018-Feb-20 02:59N 53°29' E 005°07'510.0
2018-Feb-20 02:29N 53°27' E 004°60'18 9.8
2018-Feb-20 00:39N 53°16' E 004°36'210.4
2018-Feb-20 00:28N 53°14' E 004°35'510.5
2018-Feb-20 00:00N 53°10' E 004°31'510.5
2018-Feb-19 23:30N 53°05' E 004°27'510.5
2018-Feb-19 23:00N 53°01' E 004°23'610.9
2018-Feb-19 22:30N 52°56' E 004°19'510.6
2018-Feb-19 22:00N 52°51' E 004°15'610.6
2018-Feb-19 21:25N 52°46' E 004°09'8712.0
2018-Feb-19 14:10N 51°42' E 002°33'212.2
2018-Feb-19 14:00N 51°40' E 002°31'612.1
2018-Feb-19 13:30N 51°36' E 002°24'611.7
2018-Feb-19 13:00N 51°31' E 002°18'511.2
2018-Feb-19 12:30N 51°27' E 002°13'510.1
2018-Feb-19 12:00N 51°23' E 002°08'510.1
2018-Feb-19 11:29N 51°18' E 002°06'5 9.3
2018-Feb-19 10:58N 51°13' E 002°03'4 8.8
2018-Feb-19 10:30N 51°11' E 001°58'4 8.6
2018-Feb-19 10:00N 51°09' E 001°52'4 8.3
2018-Feb-19 09:29N 51°06' E 001°47'4 8.1
2018-Feb-19 09:00N 51°03' E 001°42'5 8.3
2018-Feb-19 08:25N 50°60' E 001°37'3 8.4
2018-Feb-19 08:00N 50°57' E 001°33'11410.8
2018-Feb-18 21:27N 50°06' W 001°07'614.4
2018-Feb-18 21:01N 50°04' W 001°16'714.1
2018-Feb-18 20:31N 50°03' W 001°27'713.5
2018-Feb-18 20:00N 50°01' W 001°37'612.8
2018-Feb-18 19:30N 49°60' W 001°47'612.0
2018-Feb-18 19:00N 49°58' W 001°56'611.1
2018-Feb-18 18:30N 49°57' W 002°05'910.1
2018-Feb-18 17:37N 49°54' W 002°18'8 9.3
2018-Feb-18 16:43N 49°52' W 002°30'5 8.9
2018-Feb-18 16:07N 49°50' W 002°38'9 8.7
2018-Feb-18 15:07N 49°47' W 002°51'10 9.0
2018-Feb-18 14:01N 49°43' W 003°04'2 9.4
2018-Feb-18 13:49N 49°42' W 003°07'8210.6
2018-Feb-18 06:04N 49°01' W 004°55'112.1
2018-Feb-18 05:58N 49°00' W 004°57'812.1
2018-Feb-18 05:17N 48°56' W 005°08'312.2
2018-Feb-18 05:00N 48°54' W 005°12'612.1
2018-Feb-18 04:30N 48°51' W 005°20'612.0
2018-Feb-18 04:00N 48°48' W 005°28'611.5
2018-Feb-18 03:30N 48°45' W 005°35'911.6
2018-Feb-18 02:45N 48°38' W 005°42'311.5
2018-Feb-18 02:30N 48°35' W 005°44'611.1
2018-Feb-18 01:57N 48°30' W 005°49'  
2018-Feb-15 15:13N 39°28' W 009°50'310.3
2018-Feb-15 14:57N 39°26' W 009°50'510.6
2018-Feb-15 14:29N 39°21' W 009°50'510.8
2018-Feb-15 14:00N 39°16' W 009°51'510.6
2018-Feb-15 13:30N 39°10' W 009°51'510.6
2018-Feb-15 13:00N 39°05' W 009°51'510.7
2018-Feb-15 12:30N 38°60' W 009°51'510.8
2018-Feb-15 12:00N 38°54' W 009°51'510.6
2018-Feb-15 11:30N 38°49' W 009°51'510.6
2018-Feb-15 11:01N 38°44' W 009°51'510.5
2018-Feb-15 10:30N 38°38' W 009°50'510.5
2018-Feb-15 10:00N 38°33' W 009°48'510.2
2018-Feb-15 09:30N 38°28' W 009°47'5 9.9
2018-Feb-15 09:00N 38°24' W 009°45'5 9.8
2018-Feb-15 08:29N 38°19' W 009°43'5 9.7
2018-Feb-15 07:58N 38°14' W 009°42'5 9.7
2018-Feb-15 07:29N 38°09' W 009°40'510.1
2018-Feb-15 07:00N 38°05' W 009°39'510.2
2018-Feb-15 06:31N 37°60' W 009°37'510.0
2018-Feb-15 05:59N 37°54' W 009°36'510.0
2018-Feb-15 05:30N 37°50' W 009°35'510.0
2018-Feb-15 04:59N 37°45' W 009°33'5 9.9
2018-Feb-15 04:28N 37°40' W 009°32'214 9.0
2018-Feb-14 04:46N 35°58' W 005°37'2 7.4
2018-Feb-14 04:30N 35°58' W 005°35'4 7.3
2018-Feb-14 03:59N 35°59' W 005°30'4 7.6
2018-Feb-14 03:30N 35°59' W 005°26'4 9.0
2018-Feb-14 03:00N 35°57' W 005°21'4 7.4
2018-Feb-14 02:30N 35°54' W 005°19'0 0.6
2018-Feb-14 01:58N 35°54' W 005°19'0 0.0
2018-Feb-14 01:28N 35°54' W 005°19'0 0.0
2018-Feb-14 00:58N 35°54' W 005°19'0 0.0
2018-Feb-14 00:28N 35°54' W 005°19'0 0.0
2018-Feb-13 23:58N 35°54' W 005°19'0 0.0
2018-Feb-13 23:28N 35°54' W 005°19'0 0.0
2018-Feb-13 22:58N 35°54' W 005°19'0 0.0
2018-Feb-13 22:28N 35°54' W 005°19'0 0.0
2018-Feb-13 22:00N 35°54' W 005°19'1 1.3
2018-Feb-13 21:30N 35°54' W 005°18'2 4.1
2018-Feb-13 21:01N 35°56' W 005°18'1 1.2
2018-Feb-13 20:30N 35°55' W 005°17'  
Track history (hours):
 
Tides and Currents Weather Stations Pressure Air Temp Water Temp Dewpoint Dewpoint Depression Visibility Wind Speed Wind Dir Waves Ship Positions

Eseniya

Last reported at 2018-Feb-21 19:00 UTC. Time now 2018-Feb-21 19:26 UTC.
Position N 55°10' E 014°22'.

Length 99 m; draft 5.9 m.

Type: Cargo ship. MMSI: 273356870.

Date/timePositionNaut miles runAvg speedWind from/ knotsBaromVisibWave heightAir tempDewpointWater temp
2018-Feb-21 19:00N 55°10' E 014°22'510.4
2018-Feb-21 18:29N 55°06' E 014°16'510.3
2018-Feb-21 17:58N 55°02' E 014°10'1410.4
2018-Feb-21 16:40N 54°56' E 013°48'5610.4
2018-Feb-21 11:18N 54°32' E 012°20'3 9.9
2018-Feb-21 11:00N 54°31' E 012°16'510.1
2018-Feb-21 10:30N 54°26' E 012°12'5 9.5
2018-Feb-21 09:59N 54°25' E 012°04'1110.4
2018-Feb-21 08:58N 54°25' E 011°46'510.3
2018-Feb-21 08:30N 54°27' E 011°38'510.3
2018-Feb-21 08:00N 54°29' E 011°30'510.2
2018-Feb-21 07:30N 54°31' E 011°22'5 9.7
2018-Feb-21 07:00N 54°33' E 011°15'5 9.4
2018-Feb-21 06:30N 54°35' E 011°07'510.1
2018-Feb-21 06:00N 54°34' E 010°58'510.6
2018-Feb-21 05:30N 54°34' E 010°49'510.8
2018-Feb-21 05:00N 54°33' E 010°40'510.3
2018-Feb-21 04:30N 54°32' E 010°31'510.4
2018-Feb-21 04:00N 54°30' E 010°23'15 5.0
2018-Feb-21 01:00N 54°22' E 010°02'7 5.8
2018-Feb-20 23:53N 54°22' E 009°51'3 7.5
2018-Feb-20 23:30N 54°21' E 009°46'4 8.0
2018-Feb-20 23:00N 54°18' E 009°42'3 6.5
2018-Feb-20 22:30N 54°16' E 009°38'0 0.2
2018-Feb-20 22:00N 54°16' E 009°38'2 4.8
2018-Feb-20 21:30N 54°14' E 009°36'4 7.8
2018-Feb-20 21:00N 54°11' E 009°31'4 8.3
2018-Feb-20 20:30N 54°10' E 009°24'4 7.8
2018-Feb-20 19:59N 54°07' E 009°20'4 8.5
2018-Feb-20 19:30N 54°03' E 009°18'4 7.8
2018-Feb-20 19:01N 53°59' E 009°17'4 8.6
2018-Feb-20 18:31N 53°56' E 009°12'3 5.9
2018-Feb-20 18:00N 53°54' E 009°09'1 2.5
2018-Feb-20 17:30N 53°53' E 009°07'2 3.2
2018-Feb-20 17:00N 53°53' E 009°04'510.2
2018-Feb-20 16:30N 53°51' E 008°56'611.4
2018-Feb-20 16:00N 53°51' E 008°47'611.3
2018-Feb-20 15:30N 53°55' E 008°40'611.0
2018-Feb-20 15:00N 53°58' E 008°32'611.1
2018-Feb-20 14:30N 53°59' E 008°23'611.4
2018-Feb-20 14:00N 53°60' E 008°13'5 9.1
2018-Feb-20 13:30N 53°59' E 008°06'510.6
2018-Feb-20 13:00N 53°58' E 007°57'510.8
2018-Feb-20 12:30N 53°56' E 007°48'9710.4
2018-Feb-20 03:09N 53°30' E 005°10'2 9.9
2018-Feb-20 02:59N 53°29' E 005°07'510.0
2018-Feb-20 02:29N 53°27' E 004°60'18 9.8
2018-Feb-20 00:39N 53°16' E 004°36'210.4
2018-Feb-20 00:28N 53°14' E 004°35'510.5
2018-Feb-20 00:00N 53°10' E 004°31'510.5
2018-Feb-19 23:30N 53°05' E 004°27'510.5
2018-Feb-19 23:00N 53°01' E 004°23'610.9
2018-Feb-19 22:30N 52°56' E 004°19'510.6
2018-Feb-19 22:00N 52°51' E 004°15'610.6
2018-Feb-19 21:25N 52°46' E 004°09'8712.0
2018-Feb-19 14:10N 51°42' E 002°33'212.2
2018-Feb-19 14:00N 51°40' E 002°31'612.1
2018-Feb-19 13:30N 51°36' E 002°24'611.7
2018-Feb-19 13:00N 51°31' E 002°18'511.2
2018-Feb-19 12:30N 51°27' E 002°13'510.1
2018-Feb-19 12:00N 51°23' E 002°08'510.1
2018-Feb-19 11:29N 51°18' E 002°06'5 9.3
2018-Feb-19 10:58N 51°13' E 002°03'4 8.8
2018-Feb-19 10:30N 51°11' E 001°58'4 8.6
2018-Feb-19 10:00N 51°09' E 001°52'4 8.3
2018-Feb-19 09:29N 51°06' E 001°47'4 8.1
2018-Feb-19 09:00N 51°03' E 001°42'5 8.3
2018-Feb-19 08:25N 50°60' E 001°37'3 8.4
2018-Feb-19 08:00N 50°57' E 001°33'11410.8
2018-Feb-18 21:27N 50°06' W 001°07'614.4
2018-Feb-18 21:01N 50°04' W 001°16'714.1
2018-Feb-18 20:31N 50°03' W 001°27'713.5
2018-Feb-18 20:00N 50°01' W 001°37'612.8
2018-Feb-18 19:30N 49°60' W 001°47'612.0
2018-Feb-18 19:00N 49°58' W 001°56'611.1
2018-Feb-18 18:30N 49°57' W 002°05'910.1
2018-Feb-18 17:37N 49°54' W 002°18'8 9.3
2018-Feb-18 16:43N 49°52' W 002°30'5 8.9
2018-Feb-18 16:07N 49°50' W 002°38'9 8.7
2018-Feb-18 15:07N 49°47' W 002°51'10 9.0
2018-Feb-18 14:01N 49°43' W 003°04'2 9.4
2018-Feb-18 13:49N 49°42' W 003°07'8210.6
2018-Feb-18 06:04N 49°01' W 004°55'112.1
2018-Feb-18 05:58N 49°00' W 004°57'812.1
2018-Feb-18 05:17N 48°56' W 005°08'312.2
2018-Feb-18 05:00N 48°54' W 005°12'612.1
2018-Feb-18 04:30N 48°51' W 005°20'612.0
2018-Feb-18 04:00N 48°48' W 005°28'611.5
2018-Feb-18 03:30N 48°45' W 005°35'911.6
2018-Feb-18 02:45N 48°38' W 005°42'311.5
2018-Feb-18 02:30N 48°35' W 005°44'611.1
2018-Feb-18 01:57N 48°30' W 005°49'  
2018-Feb-15 15:13N 39°28' W 009°50'310.3
2018-Feb-15 14:57N 39°26' W 009°50'510.6
2018-Feb-15 14:29N 39°21' W 009°50'510.8
2018-Feb-15 14:00N 39°16' W 009°51'510.6
2018-Feb-15 13:30N 39°10' W 009°51'510.6
2018-Feb-15 13:00N 39°05' W 009°51'510.7
2018-Feb-15 12:30N 38°60' W 009°51'510.8
2018-Feb-15 12:00N 38°54' W 009°51'510.6
2018-Feb-15 11:30N 38°49' W 009°51'510.6
2018-Feb-15 11:01N 38°44' W 009°51'510.5
2018-Feb-15 10:30N 38°38' W 009°50'510.5
2018-Feb-15 10:00N 38°33' W 009°48'510.2
2018-Feb-15 09:30N 38°28' W 009°47'5 9.9
2018-Feb-15 09:00N 38°24' W 009°45'5 9.8
2018-Feb-15 08:29N 38°19' W 009°43'5 9.7
2018-Feb-15 07:58N 38°14' W 009°42'5 9.7
2018-Feb-15 07:29N 38°09' W 009°40'510.1
2018-Feb-15 07:00N 38°05' W 009°39'510.2
2018-Feb-15 06:31N 37°60' W 009°37'510.0
2018-Feb-15 05:59N 37°54' W 009°36'510.0
2018-Feb-15 05:30N 37°50' W 009°35'510.0
2018-Feb-15 04:59N 37°45' W 009°33'5 9.9
2018-Feb-15 04:28N 37°40' W 009°32'214 9.0
2018-Feb-14 04:46N 35°58' W 005°37'2 7.4
2018-Feb-14 04:30N 35°58' W 005°35'4 7.3
2018-Feb-14 03:59N 35°59' W 005°30'4 7.6
2018-Feb-14 03:30N 35°59' W 005°26'4 9.0
2018-Feb-14 03:00N 35°57' W 005°21'4 7.4
2018-Feb-14 02:30N 35°54' W 005°19'0 0.6
2018-Feb-14 01:58N 35°54' W 005°19'0 0.0
2018-Feb-14 01:28N 35°54' W 005°19'0 0.0
2018-Feb-14 00:58N 35°54' W 005°19'0 0.0
2018-Feb-14 00:28N 35°54' W 005°19'0 0.0
2018-Feb-13 23:58N 35°54' W 005°19'0 0.0
2018-Feb-13 23:28N 35°54' W 005°19'0 0.0
2018-Feb-13 22:58N 35°54' W 005°19'0 0.0
2018-Feb-13 22:28N 35°54' W 005°19'0 0.0
2018-Feb-13 22:00N 35°54' W 005°19'1 1.3
2018-Feb-13 21:30N 35°54' W 005°18'2 4.1
2018-Feb-13 21:01N 35°56' W 005°18'1 1.2
2018-Feb-13 20:30N 35°55' W 005°17'  

Dump ship's entire track history